Eastpoint, Pennsylvania
Current Conditions -  °F | °C
As of 10:54 PM on Sunday 23 Nov 2014 (Local Time) from KIPT Reporting Station
Light Rain Light Rain  
Wind Chill: 44°   Ceiling: 3000
Heat Index: 49°   Visibility: 8mi
Dew Point: 39°   Wind: 13mph
Humidity: 69%   Direction: 90°E
Pressure: 29.87"   Gusts: NA
Location:  41.5548°N, 76.8911°W
Report Text: KIPT 240354Z AUTO 09011KT 8SM -RA SCT026 OVC030 09/04 A2987 RMK AO2 RAB53 SLP118 P0000 T00940039
Loading
Personal Weather Stations






























Interactive Weather Map New forecast layout! Learn more

10-Day Weather Forecast

Advertisements
Track Severe Weather on mobile